Time;durP1;ratioP1;P1;durP2;ratioP2;P2;SDS_P1;SDS_P2;PMS_P1;PMS_P2;Temp;Humidity;BMP_temperature;BMP_pressure;BME280_temperature;BME280_humidity;BME280_pressure;Samples;Min_cycle;Max_cycle;Signal;HPM_P1;HPM_P2
2021/05/05 00:02:12;;;;;;;1.55;0.88;;;6.80;99.90;;;;;;5091199;28;20422;-37
2021/05/05 00:04:37;;;;;;;2.60;0.90;;;6.80;99.90;;;;;;5091105;28;20032;-37
2021/05/05 00:07:03;;;;;;;2.85;0.90;;;6.80;99.90;;;;;;5091259;28;20408;-37
2021/05/05 00:09:28;;;;;;;2.30;0.85;;;6.80;99.90;;;;;;5090763;28;20095;-37
2021/05/05 00:11:54;;;;;;;6.93;0.82;;;6.80;99.90;;;;;;5089899;28;20374;-37
2021/05/05 00:14:21;;;;;;;2.92;0.90;;;6.70;99.90;;;;;;5091169;28;20024;-37
2021/05/05 00:16:46;;;;;;;2.05;0.73;;;6.80;99.90;;;;;;5091175;28;20103;-37
2021/05/05 00:19:13;;;;;;;3.03;1.33;;;6.80;99.90;;;;;;5090723;28;20100;-37
2021/05/05 00:21:39;;;;;;;1.63;0.52;;;6.80;99.90;;;;;;5091215;28;20023;-36
2021/05/05 00:24:05;;;;;;;1.88;0.80;;;6.80;99.90;;;;;;5090416;28;20024;-37
2021/05/05 00:26:31;;;;;;;1.45;0.80;;;6.90;99.90;;;;;;5089928;28;20023;-37
2021/05/05 00:28:57;;;;;;;2.58;0.90;;;6.90;99.90;;;;;;5090764;28;20395;-37
2021/05/05 00:31:23;;;;;;;2.33;0.75;;;6.90;99.90;;;;;;5091076;28;20546;-37
2021/05/05 00:33:49;;;;;;;2.00;0.70;;;7.00;99.90;;;;;;5090428;28;20112;-37
2021/05/05 00:36:14;;;;;;;2.83;1.00;;;7.10;99.90;;;;;;5090924;28;20104;-36
2021/05/05 00:38:40;;;;;;;2.05;0.93;;;7.20;99.90;;;;;;5090629;28;20391;-37
2021/05/05 00:41:07;;;;;;;2.60;0.68;;;7.30;99.90;;;;;;5090677;28;20390;-37
2021/05/05 00:43:33;;;;;;;2.17;0.80;;;7.40;99.90;;;;;;5089953;28;20028;-37
2021/05/05 00:45:59;;;;;;;2.45;0.88;;;7.50;99.90;;;;;;5090847;28;20078;-37
2021/05/05 00:48:25;;;;;;;1.30;0.65;;;7.60;99.90;;;;;;5090842;28;20035;-37
2021/05/05 00:50:51;;;;;;;3.33;0.85;;;7.60;99.90;;;;;;5094328;28;20420;-37
2021/05/05 00:53:16;;;;;;;3.15;0.93;;;7.70;99.90;;;;;;5095251;28;20028;-37
2021/05/05 00:55:42;;;;;;;3.05;0.80;;;7.70;99.90;;;;;;5090980;28;20373;-37
2021/05/05 00:58:08;;;;;;;2.42;0.73;;;7.70;99.90;;;;;;5089426;28;20028;-37
2021/05/05 01:00:34;;;;;;;2.25;0.80;;;7.70;99.90;;;;;;5090865;28;20387;-37
2021/05/05 01:03:00;;;;;;;2.53;1.10;;;7.60;99.90;;;;;;5090307;28;20039;-37
2021/05/05 01:05:25;;;;;;;2.13;0.80;;;7.50;99.90;;;;;;5090782;28;20440;-37
2021/05/05 01:07:51;;;;;;;1.58;0.90;;;7.40;99.90;;;;;;5090540;28;20519;-38
2021/05/05 01:10:16;;;;;;;2.03;0.82;;;7.30;99.90;;;;;;5090497;28;20387;-37
2021/05/05 01:12:42;;;;;;;1.48;0.98;;;7.20;99.90;;;;;;5089434;28;20475;-37
2021/05/05 01:15:09;;;;;;;1.95;0.70;;;7.10;99.90;;;;;;5090531;28;20024;-37
2021/05/05 01:17:36;;;;;;;2.38;0.93;;;7.20;99.90;;;;;;5090442;28;20031;-37
2021/05/05 01:20:02;;;;;;;3.65;1.13;;;7.30;99.90;;;;;;5091554;28;20016;-37
2021/05/05 01:22:28;;;;;;;1.88;0.98;;;7.40;99.90;;;;;;5095477;28;20024;-37
2021/05/05 01:24:53;;;;;;;1.45;0.80;;;7.40;99.90;;;;;;5096065;28;20028;-37
2021/05/05 01:27:19;;;;;;;3.88;1.05;;;7.40;99.90;;;;;;5095017;28;20020;-37
2021/05/05 01:29:47;;;;;;;0.85;0.80;;;7.50;99.90;;;;;;5095968;28;20474;-36
2021/05/05 01:32:12;;;;;;;4.15;1.10;;;7.50;99.90;;;;;;5095886;28;20051;-36
2021/05/05 01:34:38;;;;;;;2.00;0.85;;;7.50;99.90;;;;;;5095860;28;20087;-36
2021/05/05 01:37:04;;;;;;;4.25;1.17;;;7.60;99.90;;;;;;5095691;28;20024;-37
2021/05/05 01:39:30;;;;;;;2.65;1.10;;;7.60;99.90;;;;;;5095840;28;20485;-37
2021/05/05 01:41:56;;;;;;;2.08;1.10;;;7.70;99.90;;;;;;5094970;28;20027;-37
2021/05/05 01:44:48;;;;;;;5.20;1.48;;;7.80;99.90;;;;;;5095489;28;20028;-37
2021/05/05 01:47:14;;;;;;;3.45;0.90;;;7.80;99.90;;;;;;5092728;28;20103;-37
2021/05/05 01:49:47;;;;;;;2.85;1.25;;;7.80;99.90;;;;;;5094981;28;20024;-37
2021/05/05 01:52:14;;;;;;;1.63;0.70;;;7.70;99.90;;;;;;5110755;28;20023;-36
2021/05/05 01:54:40;;;;;;;3.00;0.80;;;7.60;99.90;;;;;;5115926;28;20023;-36
2021/05/05 01:57:28;;;;;;;3.03;1.20;;;7.50;99.90;;;;;;5114933;28;20028;-36
2021/05/05 01:59:54;;;;;;;3.30;1.38;;;7.60;99.90;;;;;;5116021;28;20374;-37
2021/05/05 02:02:20;;;;;;;5.00;1.25;;;7.50;99.90;;;;;;5115517;28;20106;-37
2021/05/05 02:04:46;;;;;;;7.05;1.13;;;7.40;99.90;;;;;;5115800;28;20119;-36
2021/05/05 02:07:11;;;;;;;3.22;1.10;;;7.30;99.90;;;;;;5115971;28;20027;-37
2021/05/05 02:09:37;;;;;;;4.60;1.48;;;7.20;99.90;;;;;;5115497;28;20123;-37
2021/05/05 02:12:03;;;;;;;3.67;1.33;;;7.10;99.90;;;;;;5114752;28;20030;-37
2021/05/05 02:14:28;;;;;;;3.25;1.00;;;7.10;99.90;;;;;;5115319;28;20027;-36
2021/05/05 02:16:58;;;;;;;3.63;1.10;;;7.00;99.90;;;;;;5115471;28;20051;-37
2021/05/05 02:19:24;;;;;;;3.28;1.27;;;6.90;99.90;;;;;;5115418;28;20028;-37
2021/05/05 02:21:50;;;;;;;4.20;1.50;;;7.00;99.90;;;;;;5115535;28;20028;-36
2021/05/05 02:24:15;;;;;;;4.40;1.40;;;7.00;99.90;;;;;;5115086;28;20027;-36
2021/05/05 02:26:41;;;;;;;5.18;1.50;;;7.00;99.90;;;;;;5113342;28;20027;-36
2021/05/05 02:29:07;;;;;;;3.83;1.20;;;7.10;99.90;;;;;;5115110;28;20023;-36
2021/05/05 02:31:33;;;;;;;3.13;1.20;;;7.20;99.90;;;;;;5115107;28;20059;-36
2021/05/05 02:33:59;;;;;;;2.13;1.33;;;7.30;99.90;;;;;;5113984;28;20054;-36
2021/05/05 02:36:24;;;;;;;2.05;1.10;;;7.30;99.90;;;;;;5115127;28;20024;-37
2021/05/05 02:38:50;;;;;;;2.28;0.65;;;7.40;99.90;;;;;;5115061;28;20046;-37
2021/05/05 02:41:15;;;;;;;1.67;0.90;;;7.50;99.90;;;;;;5114109;28;20486;-37
2021/05/05 02:43:41;;;;;;;1.55;1.25;;;7.60;99.90;;;;;;5114805;28;20259;-36
2021/05/05 02:46:06;;;;;;;2.90;1.13;;;7.60;99.90;;;;;;5114826;28;20034;-37
2021/05/05 02:48:32;;;;;;;1.50;1.05;;;7.60;99.90;;;;;;5111715;28;20024;-36
2021/05/05 02:50:58;;;;;;;3.55;1.10;;;7.70;99.90;;;;;;5099135;28;20053;-36
2021/05/05 02:53:23;;;;;;;2.72;1.20;;;7.60;99.90;;;;;;5114637;28;20039;-37
2021/05/05 02:55:49;;;;;;;3.13;2.08;;;7.50;99.90;;;;;;5114717;28;20032;-37
2021/05/05 02:58:14;;;;;;;2.58;0.95;;;7.50;99.90;;;;;;5113793;28;20024;-37
2021/05/05 03:00:40;;;;;;;2.35;1.10;;;7.40;99.90;;;;;;5114358;28;20501;-37
2021/05/05 03:03:05;;;;;;;2.90;1.00;;;7.30;99.90;;;;;;5114595;28;20110;-36
2021/05/05 03:05:31;;;;;;;4.40;0.98;;;7.20;99.90;;;;;;5114491;28;20028;-37
2021/05/05 03:07:56;;;;;;;2.03;1.05;;;7.20;99.90;;;;;;5114608;28;20034;-37
2021/05/05 03:10:22;;;;;;;4.30;1.40;;;7.10;99.90;;;;;;5114293;28;20031;-36
2021/05/05 03:12:48;;;;;;;7.22;1.88;;;7.10;99.90;;;;;;5113421;28;20024;-37
2021/05/05 03:15:13;;;;;;;2.40;1.58;;;7.10;99.90;;;;;;5114014;28;20024;-37
2021/05/05 03:17:39;;;;;;;2.72;1.67;;;7.00;99.90;;;;;;5114418;28;20343;-37
2021/05/05 03:20:10;;;;;;;3.20;1.27;;;6.90;99.90;;;;;;5114305;28;20543;-36
2021/05/05 03:22:36;;;;;;;5.78;1.52;;;6.80;99.90;;;;;;5114177;28;20070;-37
2021/05/05 03:25:03;;;;;;;5.50;1.77;;;6.80;99.90;;;;;;5114187;28;20063;-36
2021/05/05 03:27:28;;;;;;;3.25;1.90;;;6.70;99.90;;;;;;5113179;28;20044;-37
2021/05/05 03:29:54;;;;;;;4.97;1.20;;;6.70;99.90;;;;;;5113728;28;20036;-36
2021/05/05 03:32:19;;;;;;;3.17;1.50;;;6.60;99.90;;;;;;5114034;28;20386;-37
2021/05/05 03:34:45;;;;;;;3.53;1.52;;;6.50;99.90;;;;;;5113863;28;20048;-36
2021/05/05 03:37:10;;;;;;;3.33;1.30;;;6.50;99.90;;;;;;5113998;28;20027;-37
2021/05/05 03:39:36;;;;;;;3.20;1.30;;;6.50;99.90;;;;;;5113908;28;20028;-37
2021/05/05 03:42:01;;;;;;;4.75;1.30;;;6.50;99.90;;;;;;5113019;28;20016;-36
2021/05/05 03:44:27;;;;;;;3.33;1.33;;;6.50;99.90;;;;;;5113271;28;20015;-36
2021/05/05 03:46:53;;;;;;;2.22;1.30;;;6.60;99.90;;;;;;5113786;28;20024;-36
2021/05/05 03:49:19;;;;;;;6.10;1.30;;;6.60;99.90;;;;;;5104015;28;20115;-37
2021/05/05 03:51:45;;;;;;;4.18;1.30;;;6.60;99.90;;;;;;5104528;28;20024;-36
2021/05/05 03:54:10;;;;;;;2.83;1.30;;;6.70;99.90;;;;;;5113489;28;20019;-36
2021/05/05 03:56:36;;;;;;;4.30;1.10;;;6.70;99.90;;;;;;5112726;28;20152;-37
2021/05/05 03:59:01;;;;;;;3.53;1.02;;;6.80;99.90;;;;;;5113533;28;20471;-36
2021/05/05 04:01:27;;;;;;;5.28;1.50;;;6.80;99.90;;;;;;5113321;28;20095;-37
2021/05/05 04:03:52;;;;;;;2.50;0.90;;;6.90;99.90;;;;;;5113463;28;20399;-37
2021/05/05 04:06:18;;;;;;;3.45;1.20;;;7.10;99.90;;;;;;5113398;28;20106;-37
2021/05/05 04:08:43;;;;;;;5.03;1.20;;;7.20;99.90;;;;;;5093614;28;20036;-37
2021/05/05 04:11:09;;;;;;;3.15;1.13;;;7.20;99.90;;;;;;5091799;28;20505;-37
2021/05/05 04:13:35;;;;;;;5.43;1.90;;;7.30;99.90;;;;;;5092569;28;20433;-37
2021/05/05 04:16:00;;;;;;;1.63;1.05;;;7.80;99.90;;;;;;5092397;28;20024;-38
2021/05/05 04:18:27;;;;;;;4.32;1.58;;;8.30;99.90;;;;;;5092341;28;20028;-37
2021/05/05 04:20:54;;;;;;;5.80;1.48;;;8.70;99.90;;;;;;5092742;28;20128;-37
2021/05/05 04:23:20;;;;;;;4.47;1.35;;;8.80;99.90;;;;;;5092542;28;20035;-37
2021/05/05 04:25:46;;;;;;;2.33;1.23;;;8.70;99.90;;;;;;5092798;28;20398;-37
2021/05/05 04:28:11;;;;;;;2.75;1.30;;;8.60;99.90;;;;;;5091500;28;20102;-37
2021/05/05 04:30:37;;;;;;;4.85;1.35;;;8.60;99.90;;;;;;5090903;28;20111;-37
2021/05/05 04:33:03;;;;;;;3.60;1.30;;;8.50;99.90;;;;;;5092534;28;20099;-37
2021/05/05 04:35:28;;;;;;;3.53;1.75;;;8.60;99.90;;;;;;5092327;28;20048;-37
2021/05/05 04:37:54;;;;;;;2.47;0.93;;;8.50;99.90;;;;;;5092554;28;20024;-36
2021/05/05 04:40:19;;;;;;;3.10;1.10;;;8.50;99.90;;;;;;5092216;28;20356;-37
2021/05/05 04:42:45;;;;;;;6.05;1.30;;;8.60;99.90;;;;;;5091617;28;20028;-37
2021/05/05 04:45:11;;;;;;;4.15;1.38;;;8.60;99.90;;;;;;5092573;28;20503;-37
2021/05/05 04:47:37;;;;;;;1.55;1.00;;;8.60;99.70;;;;;;5092467;28;20463;-36
2021/05/05 04:50:08;;;;;;;2.92;1.05;;;8.60;99.80;;;;;;5092440;28;20027;-37
2021/05/05 04:52:34;;;;;;;2.20;0.93;;;8.60;99.40;;;;;;5110521;28;20020;-36
2021/05/05 04:54:59;;;;;;;2.45;1.10;;;8.60;99.20;;;;;;5112905;28;20161;-37
2021/05/05 04:57:25;;;;;;;3.35;1.50;;;8.50;98.50;;;;;;5115288;28;20031;-37
2021/05/05 04:59:50;;;;;;;5.55;1.08;;;8.50;98.20;;;;;;5116893;28;20020;-37
2021/05/05 05:02:16;;;;;;;5.00;1.17;;;8.60;97.80;;;;;;5098540;28;20038;-36
2021/05/05 05:04:43;;;;;;;4.75;0.95;;;8.60;97.40;;;;;;5096390;28;20036;-36
2021/05/05 05:07:08;;;;;;;3.45;1.10;;;8.70;96.60;;;;;;5096706;28;20431;-37
2021/05/05 05:09:34;;;;;;;2.97;1.63;;;8.80;96.50;;;;;;5093981;28;20071;-36
2021/05/05 05:12:00;;;;;;;5.15;1.30;;;8.90;95.60;;;;;;5094958;28;20027;-37
2021/05/05 05:14:26;;;;;;;3.75;1.85;;;9.10;95.00;;;;;;5096162;28;20035;-37
2021/05/05 05:16:51;;;;;;;3.63;1.42;;;9.30;94.10;;;;;;5096355;28;20374;-37
2021/05/05 05:19:17;;;;;;;2.33;0.82;;;9.50;92.50;;;;;;5096319;28;20058;-37
2021/05/05 05:21:42;;;;;;;2.47;1.48;;;9.90;92.70;;;;;;5096023;28;20024;-37
2021/05/05 05:24:09;;;;;;;3.40;0.85;;;10.20;91.20;;;;;;5096145;28;20043;-37
2021/05/05 05:26:34;;;;;;;2.58;1.20;;;10.30;89.30;;;;;;5094888;28;20111;-37
2021/05/05 05:29:01;;;;;;;2.20;0.93;;;10.20;90.30;;;;;;5096032;28;20535;-37
2021/05/05 05:31:27;;;;;;;4.25;1.33;;;10.20;90.20;;;;;;5095742;28;20032;-37
2021/05/05 05:33:53;;;;;;;2.42;0.98;;;10.20;89.70;;;;;;5095691;28;20074;-37
2021/05/05 05:36:19;;;;;;;5.65;1.33;;;10.20;88.30;;;;;;5095472;28;20020;-37
2021/05/05 05:38:44;;;;;;;3.80;1.35;;;10.30;86.90;;;;;;5095853;28;20070;-37
2021/05/05 05:41:10;;;;;;;3.15;1.17;;;10.90;85.90;;;;;;5094113;28;20020;-37
2021/05/05 05:43:37;;;;;;;1.67;0.95;;;11.20;85.00;;;;;;5095693;28;20035;-44
2021/05/05 05:46:02;;;;;;;1.92;0.88;;;11.30;83.10;;;;;;5095712;28;20031;-47
2021/05/05 05:48:28;;;;;;;2.97;1.17;;;11.40;82.80;;;;;;5095466;28;20031;-45
2021/05/05 05:50:53;;;;;;;3.40;1.08;;;11.70;81.80;;;;;;5099458;28;20463;-44
2021/05/05 05:53:19;;;;;;;2.45;0.88;;;12.00;80.90;;;;;;5115975;28;20125;-45
2021/05/05 05:55:44;;;;;;;3.67;1.30;;;12.30;78.60;;;;;;5115714;28;20039;-45
2021/05/05 05:58:13;;;;;;;5.85;1.20;;;13.40;76.90;;;;;;5115010;28;20023;-46
2021/05/05 06:00:39;;;;;;;5.68;1.15;;;15.20;74.30;;;;;;5115716;28;20031;-45
2021/05/05 06:03:05;;;;;;;1.58;0.98;;;16.00;67.30;;;;;;5115570;28;20040;-44
2021/05/05 06:05:32;;;;;;;2.92;0.80;;;15.90;69.20;;;;;;5115614;28;20352;-46
2021/05/05 06:07:59;;;;;;;4.80;1.05;;;16.00;67.10;;;;;;5115565;28;20028;-45
2021/05/05 06:10:24;;;;;;;1.08;0.70;;;16.00;68.00;;;;;;5115329;28;20027;-47
2021/05/05 06:12:50;;;;;;;1.60;0.80;;;15.60;68.80;;;;;;5114680;28;20024;-45
2021/05/05 06:15:16;;;;;;;3.13;1.33;;;15.10;68.60;;;;;;5115507;28;20035;-46
2021/05/05 06:17:41;;;;;;;5.07;1.10;;;14.60;67.70;;;;;;5114893;28;20024;-45
2021/05/05 06:20:08;;;;;;;2.47;1.15;;;14.00;69.00;;;;;;5114796;28;20092;-42
2021/05/05 06:22:35;;;;;;;2.58;1.02;;;13.50;69.80;;;;;;5115314;28;20432;-43
2021/05/05 06:25:02;;;;;;;2.72;1.30;;;13.10;70.60;;;;;;5099616;28;20081;-42
2021/05/05 06:27:28;;;;;;;2.42;1.02;;;12.80;70.90;;;;;;5093999;28;20032;-43
2021/05/05 06:29:54;;;;;;;2.47;1.00;;;12.90;71.20;;;;;;5094893;28;20032;-43
2021/05/05 06:32:19;;;;;;;3.33;1.23;;;13.20;70.70;;;;;;5093508;28;20069;-43
2021/05/05 06:34:45;;;;;;;2.10;1.00;;;14.00;69.80;;;;;;5094543;28;20036;-44
2021/05/05 06:37:10;;;;;;;2.08;0.98;;;15.00;67.80;;;;;;5094671;28;20146;-44
2021/05/05 06:39:36;;;;;;;4.18;0.90;;;15.40;65.90;;;;;;5094455;28;20031;-43
2021/05/05 06:42:01;;;;;;;1.75;0.80;;;16.00;65.20;;;;;;5093680;28;20028;-43
2021/05/05 06:44:27;;;;;;;3.65;0.70;;;15.90;64.60;;;;;;5094524;28;20360;-42
2021/05/05 06:46:55;;;;;;;1.48;0.80;;;15.60;65.10;;;;;;5094016;28;20497;-42
2021/05/05 06:49:21;;;;;;;1.92;0.70;;;16.10;64.80;;;;;;5094403;28;20379;-43
2021/05/05 06:51:47;;;;;;;1.33;0.80;;;17.00;62.10;;;;;;5105589;28;20019;-42
2021/05/05 06:54:13;;;;;;;3.83;0.60;;;17.30;61.50;;;;;;5114623;28;20035;-43
2021/05/05 06:56:39;;;;;;;3.60;0.95;;;17.00;59.80;;;;;;5113750;28;20024;-45
2021/05/05 06:59:04;;;;;;;3.05;1.10;;;16.40;61.00;;;;;;5114822;28;20027;-43
2021/05/05 07:01:30;;;;;;;1.55;0.70;;;16.00;60.70;;;;;;5114394;28;20032;-46
2021/05/05 07:03:55;;;;;;;4.13;1.00;;;16.00;61.20;;;;;;5114621;28;20035;-44
2021/05/05 07:06:20;;;;;;;2.72;0.93;;;16.70;61.00;;;;;;5114290;28;20031;-43
2021/05/05 07:08:46;;;;;;;1.52;0.82;;;18.50;58.50;;;;;;5114386;28;20016;-43
2021/05/05 07:11:12;;;;;;;4.25;0.93;;;20.40;56.70;;;;;;5113382;27;20020;-45
2021/05/05 07:13:37;;;;;;;2.13;0.90;;;21.80;53.70;;;;;;5114223;28;20026;-42
2021/05/05 07:16:03;;;;;;;0.85;0.65;;;22.90;52.80;;;;;;5114013;28;20489;-44
2021/05/05 07:18:28;;;;;;;2.25;0.98;;;24.10;52.10;;;;;;5113659;28;20026;-44
2021/05/05 07:20:56;;;;;;;2.05;0.80;;;25.10;50.70;;;;;;5114104;28;20417;-43
2021/05/05 07:23:21;;;;;;;1.40;0.85;;;25.90;49.60;;;;;;5114160;28;20106;-45
2021/05/05 07:25:47;;;;;;;2.50;0.77;;;26.80;48.30;;;;;;5114029;28;20427;-45
2021/05/05 07:28:12;;;;;;;2.17;0.88;;;25.10;48.40;;;;;;5111903;28;20505;-44
2021/05/05 07:30:38;;;;;;;1.73;0.75;;;23.00;48.70;;;;;;5113899;28;20417;-43
2021/05/05 07:33:04;;;;;;;2.05;0.90;;;21.30;51.00;;;;;;5113987;28;20610;-44
2021/05/05 07:35:30;;;;;;;1.40;0.80;;;20.10;51.60;;;;;;5113679;28;20051;-43
2021/05/05 07:45:50;;;;;;;2.05;1.00;;;16.60;54.60;;;;;;5113644;28;20073;-42
2021/05/05 07:51:20;;;;;;;3.72;1.20;;;15.50;55.50;;;;;;5038098;28;20415;-43
2021/05/05 07:53:45;;;;;;;1.75;1.10;;;15.20;56.30;;;;;;5050912;28;20714;-43
2021/05/05 07:56:11;;;;;;;2.63;0.90;;;15.00;55.80;;;;;;5078989;28;20035;-44
2021/05/05 07:58:41;;;;;;;2.95;1.17;;;15.50;56.20;;;;;;5113576;28;20031;-43
2021/05/05 08:01:08;;;;;;;1.83;1.02;;;17.80;54.30;;;;;;5113343;28;20114;-43
2021/05/05 08:03:33;;;;;;;0.77;0.63;;;20.20;51.50;;;;;;5113456;28;20193;-44
2021/05/05 08:05:59;;;;;;;2.20;1.17;;;20.70;50.80;;;;;;5113274;28;20033;-43
2021/05/05 08:08:25;;;;;;;2.65;0.98;;;20.80;50.30;;;;;;5113317;28;20103;-44
2021/05/05 08:10:50;;;;;;;5.63;1.33;;;19.80;49.80;;;;;;5113151;28;20415;-43
2021/05/05 08:13:16;;;;;;;1.95;0.80;;;18.90;50.10;;;;;;5112447;28;20099;-44
2021/05/05 08:15:41;;;;;;;2.20;0.85;;;18.20;50.90;;;;;;5113009;28;20032;-43
2021/05/05 08:18:07;;;;;;;1.05;0.75;;;17.40;52.00;;;;;;5113209;28;20016;-43
2021/05/05 08:20:37;;;;;;;2.55;0.95;;;16.70;52.40;;;;;;5113310;28;20028;-46
2021/05/05 08:23:11;;;;;;;3.92;1.20;;;16.10;53.30;;;;;;5113066;28;20031;-43
2021/05/05 08:25:37;;;;;;;1.90;0.98;;;15.70;53.90;;;;;;5103956;28;20060;-42
2021/05/05 08:28:03;;;;;;;3.75;1.23;;;15.30;54.40;;;;;;5091684;28;20067;-42
2021/05/05 08:30:28;;;;;;;1.45;0.70;;;14.90;54.70;;;;;;5091857;28;20024;-44
2021/05/05 08:32:55;;;;;;;2.08;0.90;;;15.10;55.10;;;;;;5092522;28;20024;-43
2021/05/05 08:35:20;;;;;;;1.90;0.80;;;15.30;54.70;;;;;;5092392;28;20051;-42
2021/05/05 08:37:48;;;;;;;2.42;0.90;;;15.90;54.60;;;;;;5092390;28;20039;-42
2021/05/05 08:40:14;;;;;;;1.80;0.85;;;17.10;53.20;;;;;;5092886;28;20038;-44
2021/05/05 08:42:41;;;;;;;2.78;0.90;;;17.20;52.60;;;;;;5091326;28;20024;-47
2021/05/05 08:45:22;;;;;;;3.58;1.05;;;18.20;51.50;;;;;;5092570;28;20032;-43
2021/05/05 08:47:51;;;;;;;1.17;0.82;;;19.80;48.70;;;;;;5092466;28;20028;-43
2021/05/05 08:50:23;;;;;;;2.08;0.90;;;20.90;48.40;;;;;;5092459;28;20497;-44
2021/05/05 08:52:49;;;;;;;0.93;0.70;;;21.20;47.30;;;;;;5112395;28;20024;-43
2021/05/05 08:55:17;;;;;;;2.25;0.85;;;20.80;47.80;;;;;;5112744;28;20069;-44
2021/05/05 08:57:44;;;;;;;1.15;0.70;;;19.80;48.50;;;;;;5111740;28;20110;-43
2021/05/05 09:00:16;;;;;;;1.98;0.70;;;18.70;48.70;;;;;;5112925;28;20024;-43
2021/05/05 09:02:41;;;;;;;1.83;0.77;;;17.80;50.30;;;;;;5112651;28;20623;-43
2021/05/05 09:05:10;;;;;;;2.28;0.95;;;17.00;51.40;;;;;;5112791;28;20032;-43
2021/05/05 09:07:37;;;;;;;2.63;1.00;;;16.30;52.30;;;;;;5112397;28;20077;-42
2021/05/05 09:10:23;;;;;;;3.05;0.90;;;15.60;54.90;;;;;;5112516;28;20023;-40
2021/05/05 09:12:53;;;;;;;2.13;1.13;;;16.70;56.40;;;;;;5111632;28;20076;-42
2021/05/05 09:15:26;;;;;;;3.63;1.10;;;18.60;54.00;;;;;;5112693;28;20110;-42
2021/05/05 09:17:56;;;;;;;2.80;1.00;;;19.70;52.10;;;;;;5112503;28;20020;-41
2021/05/05 09:20:28;;;;;;;2.25;0.90;;;19.30;51.60;;;;;;5112507;28;20027;-43
2021/05/05 09:23:02;;;;;;;1.98;0.88;;;18.60;52.70;;;;;;5112330;28;20475;-45
2021/05/05 09:25:30;;;;;;;2.08;1.00;;;17.90;52.70;;;;;;5112640;28;20493;-41
2021/05/05 09:28:21;;;;;;;1.38;0.73;;;16.90;54.60;;;;;;5111403;28;20501;-41
2021/05/05 09:30:50;;;;;;;1.00;0.70;;;16.10;56.20;;;;;;5112208;28;20375;-42
2021/05/05 09:33:27;;;;;;;1.83;1.00;;;15.90;57.30;;;;;;5112208;28;20426;-40
2021/05/05 09:35:55;;;;;;;1.25;0.90;;;15.60;58.00;;;;;;5112453;28;20060;-41
2021/05/05 09:38:37;;;;;;;2.03;1.00;;;16.50;57.00;;;;;;5112266;28;20055;-42
2021/05/05 09:41:02;;;;;;;0.85;0.70;;;17.50;54.30;;;;;;5111450;28;20074;-44
2021/05/05 09:43:38;;;;;;;0.52;0.52;;;17.30;53.90;;;;;;5115547;28;20067;-44
2021/05/05 09:46:24;;;;;;;0.90;0.70;;;18.10;52.10;;;;;;5116173;28;20386;-41
2021/05/05 09:48:49;;;;;;;1.33;0.63;;;19.00;50.80;;;;;;5110244;28;20102;-42
2021/05/05 09:51:15;;;;;;;1.25;0.77;;;19.40;49.60;;;;;;5102672;28;20119;-41
2021/05/05 09:53:40;;;;;;;2.90;0.85;;;19.60;47.90;;;;;;5115625;28;20479;-41
2021/05/05 09:56:11;;;;;;;0.90;0.55;;;19.90;46.80;;;;;;5114915;28;20485;-41
2021/05/05 09:58:39;;;;;;;2.40;0.68;;;19.50;46.20;;;;;;5115932;28;20351;-41
2021/05/05 10:01:08;;;;;;;1.55;0.55;;;19.10;46.60;;;;;;5115902;28;20037;-41
2021/05/05 10:03:42;;;;;;;1.15;0.50;;;18.80;47.60;;;;;;5115734;28;20091;-41
2021/05/05 10:06:37;;;;;;;0.60;0.50;;;18.40;48.10;;;;;;5115594;28;20559;-42
2021/05/05 10:09:12;;;;;;;2.22;0.77;;;17.90;48.90;;;;;;5115456;28;20046;-41
2021/05/05 10:11:43;;;;;;;2.47;0.70;;;17.40;50.20;;;;;;5114901;28;20426;-41
2021/05/05 10:14:10;;;;;;;0.60;0.60;;;17.00;51.50;;;;;;5115582;28;20063;-41
2021/05/05 10:16:41;;;;;;;0.40;0.40;;;16.60;51.50;;;;;;5115360;28;20477;-40
2021/05/05 10:19:08;;;;;;;2.78;0.80;;;16.50;52.40;;;;;;5115365;28;20063;-42
2021/05/05 10:21:39;;;;;;;0.88;0.60;;;16.50;52.60;;;;;;5115577;28;20183;-41
2021/05/05 10:24:07;;;;;;;0.63;0.60;;;16.60;52.50;;;;;;5115124;28;20039;-43
2021/05/05 10:26:32;;;;;;;0.98;0.70;;;16.50;52.50;;;;;;5114544;28;20020;-41
2021/05/05 10:28:58;;;;;;;2.90;0.90;;;16.30;53.00;;;;;;5115052;28;20051;-43
2021/05/05 10:31:27;;;;;;;2.53;0.82;;;15.90;53.50;;;;;;5115189;28;20046;-40
2021/05/05 10:33:57;;;;;;;1.50;0.80;;;15.40;54.90;;;;;;5114659;28;20044;-40
2021/05/05 10:36:34;;;;;;;0.70;0.60;;;14.90;56.30;;;;;;5115202;28;20458;-40
2021/05/05 10:39:05;;;;;;;0.63;0.40;;;14.70;58.10;;;;;;5114815;28;20073;-40
2021/05/05 10:41:30;;;;;;;2.53;0.45;;;14.60;57.40;;;;;;5113982;28;20106;-40
2021/05/05 10:43:58;;;;;;;0.20;0.20;;;14.60;56.90;;;;;;5098187;27;20596;-40
2021/05/05 10:46:31;;;;;;;0.20;0.20;;;14.50;57.10;;;;;;5094428;28;20032;-41
2021/05/05 10:49:07;;;;;;;0.45;0.20;;;14.50;56.20;;;;;;5095058;28;20024;-41
2021/05/05 10:51:44;;;;;;;1.08;0.40;;;14.50;56.50;;;;;;5103728;28;20054;-40
2021/05/05 10:54:15;;;;;;;1.15;0.75;;;14.40;56.70;;;;;;5112475;28;20160;-40
2021/05/05 10:56:45;;;;;;;0.93;0.70;;;14.40;56.40;;;;;;5113686;28;20135;-40
2021/05/05 10:59:12;;;;;;;1.60;0.50;;;14.40;56.50;;;;;;5114407;28;20024;-40
2021/05/05 11:01:43;;;;;;;1.30;0.75;;;14.60;56.50;;;;;;5114556;28;20038;-41
2021/05/05 11:04:13;;;;;;;1.33;0.70;;;14.90;56.30;;;;;;5114145;28;20584;-41
2021/05/05 11:06:40;;;;;;;2.85;0.80;;;15.00;56.10;;;;;;5114308;28;20064;-41
2021/05/05 11:09:11;;;;;;;1.67;0.73;;;15.10;56.00;;;;;;5114213;28;20398;-40
2021/05/05 11:11:45;;;;;;;1.30;0.80;;;14.90;55.90;;;;;;5113289;28;20509;-41
2021/05/05 11:14:23;;;;;;;1.85;0.77;;;14.80;56.30;;;;;;5114092;28;20027;-41
2021/05/05 11:17:00;;;;;;;1.05;0.50;;;15.00;55.70;;;;;;5114173;28;20051;-42
2021/05/05 11:19:37;;;;;;;1.70;0.50;;;15.00;54.50;;;;;;5114213;28;20042;-41
2021/05/05 11:22:19;;;;;;;2.20;0.57;;;15.00;54.40;;;;;;5113698;28;20028;-40
2021/05/05 11:24:45;;;;;;;1.85;0.50;;;14.80;54.50;;;;;;5113985;28;20073;-40
2021/05/05 11:27:14;;;;;;;0.70;0.40;;;14.70;55.00;;;;;;5112996;28;20035;-41
2021/05/05 11:29:43;;;;;;;0.85;0.47;;;14.60;55.00;;;;;;5113532;28;20063;-40
2021/05/05 11:32:16;;;;;;;2.10;1.00;;;14.60;55.40;;;;;;5113592;28;20478;-40
2021/05/05 11:34:46;;;;;;;0.88;0.52;;;14.50;54.50;;;;;;5113751;28;20054;-40
2021/05/05 11:37:23;;;;;;;1.38;0.52;;;14.30;54.70;;;;;;5113676;28;20023;-40
2021/05/05 11:39:56;;;;;;;1.33;0.70;;;14.30;54.70;;;;;;5113581;28;20030;-41
2021/05/05 11:42:32;;;;;;;0.52;0.40;;;14.40;55.00;;;;;;5112395;28;20423;-40
2021/05/05 11:45:28;;;;;;;1.05;0.70;;;14.50;55.00;;;;;;5113479;28;20023;-41
2021/05/05 11:47:53;;;;;;;0.80;0.50;;;14.60;54.60;;;;;;5095450;28;20490;-40
2021/05/05 11:50:22;;;;;;;2.13;0.60;;;14.80;54.20;;;;;;5095248;28;20076;-40
2021/05/05 11:52:51;;;;;;;1.27;0.40;;;14.90;54.10;;;;;;5113214;28;20436;-41
2021/05/05 11:55:27;;;;;;;6.82;0.77;;;14.90;53.80;;;;;;5113431;28;20489;-40
2021/05/05 11:57:55;;;;;;;0.88;0.45;;;15.00;53.40;;;;;;5112403;28;20043;-40
2021/05/05 12:00:25;;;;;;;2.10;0.50;;;15.10;53.10;;;;;;5113433;28;20043;-41
2021/05/05 12:02:57;;;;;;;1.58;0.77;;;15.20;52.60;;;;;;5113143;28;20019;-40
2021/05/05 12:05:33;;;;;;;1.95;0.40;;;15.20;52.50;;;;;;5113197;28;20448;-42
2021/05/05 12:08:16;;;;;;;1.02;0.57;;;15.30;51.00;;;;;;5113315;28;20482;-40
2021/05/05 12:10:49;;;;;;;2.53;0.60;;;15.30;49.70;;;;;;5113348;28;20367;-41
2021/05/05 12:13:30;;;;;;;5.60;0.60;;;15.40;49.70;;;;;;5112394;28;20027;-40
2021/05/05 12:16:13;;;;;;;1.33;0.30;;;15.40;48.60;;;;;;5113315;28;20028;-42
2021/05/05 12:18:45;;;;;;;2.95;0.28;;;15.60;49.80;;;;;;5113346;28;20047;-41
2021/05/05 12:21:13;;;;;;;5.82;0.93;;;15.60;49.20;;;;;;5113323;28;20035;-41
2021/05/05 12:23:47;;;;;;;2.40;0.30;;;15.40;49.00;;;;;;5113168;28;20020;-40
2021/05/05 12:26:19;;;;;;;2.30;0.60;;;15.20;49.20;;;;;;5112238;28;20816;-40
2021/05/05 12:28:46;;;;;;;1.55;0.30;;;15.00;49.20;;;;;;5113253;28;20024;-41
2021/05/05 12:31:14;;;;;;;2.47;0.47;;;15.10;49.70;;;;;;5112725;28;20027;-41
2021/05/05 12:33:42;;;;;;;0.35;0.30;;;15.20;49.60;;;;;;5112809;28;20128;-40
2021/05/05 12:36:12;;;;;;;1.17;0.45;;;15.20;49.90;;;;;;5113062;28;20047;-39
2021/05/05 12:38:42;;;;;;;3.25;0.40;;;15.30;49.20;;;;;;5103014;28;20075;-40
2021/05/05 12:41:11;;;;;;;1.10;0.50;;;15.50;49.20;;;;;;5091679;28;20425;-42
2021/05/05 12:43:39;;;;;;;1.17;0.52;;;15.60;48.30;;;;;;5092411;28;20031;-40
2021/05/05 12:46:18;;;;;;;4.30;0.63;;;15.60;48.20;;;;;;5092569;28;20483;-39
2021/05/05 12:48:44;;;;;;;3.97;0.77;;;15.60;47.90;;;;;;5093933;28;20032;-41
2021/05/05 12:51:13;;;;;;;1.50;0.30;;;15.40;47.50;;;;;;5089160;28;20522;-40
2021/05/05 12:53:57;;;;;;;3.17;0.50;;;15.30;47.90;;;;;;5092306;28;20046;-40
2021/05/05 12:56:46;;;;;;;2.63;0.50;;;15.10;47.20;;;;;;5092570;28;20023;-43
2021/05/05 12:59:16;;;;;;;3.40;0.60;;;15.00;48.40;;;;;;5092035;28;20052;-40
2021/05/05 13:01:42;;;;;;;2.47;0.70;;;15.00;48.80;;;;;;5092334;28;20023;-41
2021/05/05 13:04:09;;;;;;;3.75;0.80;;;14.80;49.10;;;;;;5092084;28;20036;-40
2021/05/05 13:06:40;;;;;;;1.63;0.75;;;14.70;49.10;;;;;;5090989;28;20541;-41